Time;durP1;ratioP1;P1;durP2;ratioP2;P2;SDS_P1;SDS_P2;PMS_P1;PMS_P2;Temp;Humidity;BMP_temperature;BMP_pressure;BME280_temperature;BME280_humidity;BME280_pressure;Samples;Min_cycle;Max_cycle;Signal;HPM_P1;HPM_P2
2023/06/28 07:36:58;;;;;;;8.60;4.07;;;21.70;99.90;;;;;;5111660;23;20184;31
2023/06/28 07:38:59;;;;;;;17.55;4.25;;;21.90;99.90;;;;;;5070130;23;20612;-93
2023/06/28 07:41:20;;;;;;;16.17;4.60;;;22.20;99.90;;;;;;5047955;23;20158;-94
2023/06/28 07:43:24;;;;;;;13.57;4.18;;;22.30;99.90;;;;;;5047576;23;20150;-94
2023/06/28 07:45:35;;;;;;;13.65;4.55;;;23.00;99.90;;;;;;5047111;23;20176;-95
2023/06/28 07:47:43;;;;;;;13.95;4.63;;;23.60;99.90;;;;;;5050952;23;20170;-94
2023/06/28 07:49:44;;;;;;;11.63;4.47;;;24.60;99.90;;;;;;5097497;23;20231;-94
2023/06/28 07:52:32;;;;;;;13.70;3.92;;;26.00;99.90;;;;;;5071562;23;20217;-95
2023/06/28 07:55:07;;;;;;;12.30;4.05;;;27.00;99.90;;;;;;5075307;23;20158;-96
2023/06/28 07:57:36;;;;;;;15.32;3.95;;;28.30;99.90;;;;;;5070157;23;20157;-96
2023/06/28 07:59:37;;;;;;;13.40;4.20;;;29.40;99.90;;;;;;5123170;23;20504;-95
2023/06/28 08:01:38;;;;;;;15.23;4.07;;;29.30;99.90;;;;;;5097539;23;20180;-94
2023/06/28 08:03:49;;;;;;;15.23;4.00;;;29.20;99.90;;;;;;5072717;23;20161;-95
2023/06/28 08:05:53;;;;;;;13.32;4.90;;;29.80;99.90;;;;;;5070921;23;20523;-95
2023/06/28 08:07:54;;;;;;;13.90;4.47;;;30.40;99.90;;;;;;5073323;23;20209;-95
2023/06/28 08:10:42;;;;;;;11.10;3.95;;;30.60;99.90;;;;;;5072394;23;20239;-95
2023/06/28 08:12:58;;;;;;;12.55;4.55;;;30.20;99.90;;;;;;5098042;23;20137;-96
2023/06/28 08:15:28;;;;;;;12.35;4.53;;;29.30;99.90;;;;;;5098532;23;20144;-95
2023/06/28 08:17:34;;;;;;;11.80;3.85;;;28.50;99.90;;;;;;5046890;23;20176;-94
2023/06/28 08:20:16;;;;;;;11.35;4.70;;;28.00;99.90;;;;;;5073720;23;20192;-95
2023/06/28 08:22:27;;;;;;;14.30;5.10;;;28.10;99.90;;;;;;5074083;23;20157;-94
2023/06/28 08:24:34;;;;;;;14.10;4.88;;;27.70;99.90;;;;;;5075671;23;20153;-95
2023/06/28 08:26:36;;;;;;;13.00;4.55;;;26.90;99.90;;;;;;5097377;23;20506;-94
2023/06/28 08:28:40;;;;;;;17.73;5.15;;;26.50;99.90;;;;;;5072982;23;20623;-95
2023/06/28 08:30:45;;;;;;;12.25;5.07;;;26.20;99.90;;;;;;5100416;23;20183;-94
2023/06/28 08:32:46;;;;;;;16.05;5.22;;;26.00;99.90;;;;;;5074776;23;20137;-95
2023/06/28 08:34:47;;;;;;;15.65;4.80;;;26.10;99.90;;;;;;5094133;23;20172;-92
2023/06/28 08:36:48;;;;;;;15.52;5.07;;;26.00;99.90;;;;;;5072200;23;20209;-93
2023/06/28 08:38:48;;;;;;;17.60;5.30;;;25.90;99.90;;;;;;5072080;23;20192;-94
2023/06/28 08:40:50;;;;;;;18.48;5.85;;;25.90;99.90;;;;;;5073380;23;20154;-96
2023/06/28 08:42:52;;;;;;;19.60;5.07;;;26.00;99.90;;;;;;5073021;23;20153;-94
2023/06/28 08:44:57;;;;;;;13.75;4.72;;;26.20;99.90;;;;;;5073599;23;20153;-93
2023/06/28 08:47:02;;;;;;;9.98;4.60;;;26.10;99.90;;;;;;5097101;23;20156;-95
2023/06/28 08:49:04;;;;;;;14.90;5.75;;;26.10;99.90;;;;;;5073013;23;20212;-93
2023/06/28 08:51:05;;;;;;;11.77;5.53;;;25.70;99.90;;;;;;5072801;23;20156;-93
2023/06/28 08:53:16;;;;;;;19.02;5.93;;;25.80;99.90;;;;;;5071429;23;20159;-93
2023/06/28 08:55:20;;;;;;;14.55;5.55;;;25.80;99.90;;;;;;5070151;23;20236;-92
2023/06/28 08:57:21;;;;;;;12.43;5.10;;;25.60;99.90;;;;;;5069694;23;20196;-91
2023/06/28 08:59:22;;;;;;;16.95;6.18;;;25.70;99.90;;;;;;5069828;23;20153;-91
2023/06/28 09:01:23;;;;;;;16.70;6.28;;;25.90;99.90;;;;;;5045588;23;20306;-91
2023/06/28 09:03:25;;;;;;;12.15;5.40;;;26.10;99.90;;;;;;5069125;23;20149;-92
2023/06/28 09:05:25;;;;;;;14.15;5.57;;;26.10;99.90;;;;;;5069715;23;20236;-92
2023/06/28 09:07:27;;;;;;;17.70;5.55;;;25.60;99.90;;;;;;5069207;23;20170;-93
2023/06/28 09:09:30;;;;;;;16.70;5.32;;;25.60;99.90;;;;;;5069566;23;20201;-92
2023/06/28 09:11:31;;;;;;;12.50;5.70;;;25.30;99.90;;;;;;5069629;23;20200;-91
2023/06/28 09:13:32;;;;;;;19.05;6.25;;;25.40;99.90;;;;;;5069558;23;20513;-91
2023/06/28 09:15:35;;;;;;;11.13;5.88;;;25.50;99.90;;;;;;5045333;23;20154;-93
2023/06/28 09:17:36;;;;;;;12.93;5.40;;;25.50;99.90;;;;;;5045310;23;20233;-92
2023/06/28 09:19:37;;;;;;;17.13;6.20;;;25.40;99.90;;;;;;5071902;23;20589;-92
2023/06/28 09:21:39;;;;;;;18.10;5.97;;;25.20;99.90;;;;;;5044987;23;20165;-91
2023/06/28 09:23:40;;;;;;;14.63;5.75;;;25.10;99.90;;;;;;5044528;23;20131;-91
2023/06/28 09:25:41;;;;;;;16.85;5.93;;;24.90;99.90;;;;;;5070712;23;20150;-91
2023/06/28 09:27:42;;;;;;;16.15;6.35;;;25.30;99.90;;;;;;5070198;23;20173;-91
2023/06/28 09:30:01;;;;;;;15.88;6.78;;;25.50;99.90;;;;;;5073379;23;20555;-91
2023/06/28 09:32:02;;;;;;;16.40;6.57;;;26.10;99.90;;;;;;5118379;23;20172;-92
2023/06/28 09:34:03;;;;;;;19.90;5.53;;;26.40;99.90;;;;;;5094196;23;20255;-92
2023/06/28 09:36:04;;;;;;;14.90;6.25;;;26.80;99.90;;;;;;5069260;23;20185;-92
2023/06/28 09:38:08;;;;;;;19.33;6.72;;;26.90;99.90;;;;;;5070411;23;20205;-91
2023/06/28 09:40:14;;;;;;;18.17;6.50;;;26.90;99.90;;;;;;5069506;23;20184;-89
2023/06/28 09:42:15;;;;;;;12.80;6.18;;;27.30;99.90;;;;;;5071310;23;20209;-94
2023/06/28 09:44:29;;;;;;;17.17;6.30;;;27.00;99.90;;;;;;5069595;23;20157;-94
2023/06/28 09:46:32;;;;;;;16.90;5.90;;;26.90;99.90;;;;;;5069423;23;20150;-93
2023/06/28 09:48:36;;;;;;;13.00;6.22;;;27.20;99.90;;;;;;5069388;23;20265;-90
2023/06/28 09:50:41;;;;;;;17.85;6.50;;;27.30;99.90;;;;;;5093923;23;20176;-89
2023/06/28 09:52:42;;;;;;;13.75;6.28;;;27.30;99.90;;;;;;5069522;23;20204;-90
2023/06/28 09:54:45;;;;;;;12.18;5.95;;;27.20;99.90;;;;;;5069468;23;20605;-91
2023/06/28 09:56:53;;;;;;;18.05;7.05;;;27.10;99.90;;;;;;5069608;23;20158;-90
2023/06/28 09:58:54;;;;;;;18.35;7.40;;;27.30;99.90;;;;;;5070155;23;20176;-90
2023/06/28 10:00:56;;;;;;;15.85;6.53;;;27.60;99.90;;;;;;5070421;23;20149;-90
2023/06/28 10:02:58;;;;;;;20.27;7.63;;;27.60;99.90;;;;;;5069842;23;20153;-89
2023/06/28 10:05:02;;;;;;;16.77;7.15;;;27.50;99.90;;;;;;5045482;23;20157;-90
2023/06/28 10:07:04;;;;;;;17.58;7.38;;;27.40;99.90;;;;;;5094163;23;20149;-90
2023/06/28 10:09:05;;;;;;;16.58;7.55;;;27.40;99.90;;;;;;5096671;23;20180;-89
2023/06/28 10:11:12;;;;;;;14.00;6.50;;;27.10;99.90;;;;;;5069864;23;20177;-95
2023/06/28 10:13:22;;;;;;;17.98;6.75;;;26.80;99.90;;;;;;5068542;23;20154;-89
2023/06/28 10:15:25;;;;;;;20.17;7.60;;;26.80;99.90;;;;;;5069510;23;20597;-94
2023/06/28 10:17:28;;;;;;;19.95;7.07;;;26.80;99.90;;;;;;5093423;23;20172;-95
2023/06/28 10:19:29;;;;;;;17.50;7.38;;;26.90;99.90;;;;;;5069405;23;20150;-90
2023/06/28 10:21:31;;;;;;;17.48;6.60;;;26.80;99.90;;;;;;5045118;23;20162;-89
2023/06/28 10:23:35;;;;;;;23.88;7.38;;;27.10;99.90;;;;;;5044913;23;20146;-94
2023/06/28 10:25:36;;;;;;;20.83;7.13;;;26.90;99.90;;;;;;5044996;23;20166;-88
2023/06/28 10:27:37;;;;;;;15.70;7.13;;;27.10;99.90;;;;;;5069097;23;20173;-89
2023/06/28 10:29:41;;;;;;;18.83;6.70;;;27.30;99.90;;;;;;5069514;23;20201;-89
2023/06/28 10:31:43;;;;;;;18.52;7.47;;;27.60;99.90;;;;;;5069303;23;20154;-87
2023/06/28 10:33:45;;;;;;;14.23;7.22;;;27.60;99.90;;;;;;5069225;23;20165;-90
2023/06/28 10:35:45;;;;;;;22.80;7.75;;;27.70;99.90;;;;;;5069212;23;20181;-92
2023/06/28 10:37:46;;;;;;;19.50;7.15;;;27.90;99.90;;;;;;5093343;23;20193;-92
2023/06/28 10:39:50;;;;;;;16.00;7.00;;;27.70;99.90;;;;;;5069120;23;20162;-94
2023/06/28 10:42:00;;;;;;;22.70;7.78;;;27.70;99.90;;;;;;5069035;23;20153;-89
2023/06/28 10:44:07;;;;;;;27.33;7.57;;;27.90;99.90;;;;;;5093596;23;20239;-94
2023/06/28 10:46:22;;;;;;;16.65;7.70;;;28.00;99.90;;;;;;5069188;23;20158;-93
2023/06/28 10:48:25;;;;;;;16.17;7.50;;;28.00;99.90;;;;;;5093249;23;20173;-89
2023/06/28 10:50:26;;;;;;;19.58;8.13;;;27.80;99.90;;;;;;5093575;23;20192;-94
2023/06/28 10:52:27;;;;;;;16.73;7.28;;;27.60;99.90;;;;;;5093625;23;20499;-95
2023/06/28 10:54:28;;;;;;;21.63;8.07;;;27.30;99.90;;;;;;5069084;23;20222;-89
2023/06/28 10:56:35;;;;;;;21.55;7.57;;;27.20;99.90;;;;;;5093132;23;20592;-89
2023/06/28 10:58:38;;;;;;;16.50;7.65;;;27.20;99.90;;;;;;5093441;23;20175;-91
2023/06/28 11:00:44;;;;;;;16.85;7.40;;;27.00;99.90;;;;;;5093333;23;20211;-89
2023/06/28 11:02:59;;;;;;;21.60;7.85;;;27.20;99.90;;;;;;5044898;23;20150;-89
2023/06/28 11:05:00;;;;;;;14.52;7.70;;;27.20;99.90;;;;;;5068905;23;20150;-89
2023/06/28 11:07:06;;;;;;;16.27;7.43;;;27.30;99.90;;;;;;5064861;23;20193;-90
2023/06/28 11:09:15;;;;;;;16.52;7.10;;;27.60;99.90;;;;;;5068578;23;20554;-87
2023/06/28 11:11:22;;;;;;;23.45;8.55;;;27.90;99.90;;;;;;5068369;23;20152;-88
2023/06/28 11:13:42;;;;;;;29.52;8.55;;;28.30;99.90;;;;;;5068514;23;20473;-90
2023/06/28 11:15:45;;;;;;;15.63;8.38;;;28.80;99.90;;;;;;5069229;23;20158;-88
2023/06/28 11:17:46;;;;;;;19.60;8.25;;;28.70;99.90;;;;;;5068164;23;20172;-94
2023/06/28 11:19:46;;;;;;;20.55;7.80;;;28.80;99.90;;;;;;5068161;23;20154;-94
2023/06/28 11:21:54;;;;;;;19.55;7.75;;;28.70;99.90;;;;;;5068814;23;20161;-94
2023/06/28 11:23:55;;;;;;;17.23;8.15;;;28.80;99.90;;;;;;5068783;23;20156;-92
2023/06/28 11:26:04;;;;;;;19.85;8.57;;;28.70;99.90;;;;;;5069384;23;20150;-94
2023/06/28 11:28:05;;;;;;;18.08;8.57;;;28.80;99.90;;;;;;5070329;23;20169;-94
2023/06/28 11:30:08;;;;;;;20.23;7.85;;;29.00;99.90;;;;;;5094644;23;20271;-92
2023/06/28 11:32:09;;;;;;;21.60;8.23;;;29.00;99.90;;;;;;5070458;23;20220;-95
2023/06/28 11:34:14;;;;;;;13.98;8.23;;;29.00;99.90;;;;;;5070466;23;20232;-94
2023/06/28 11:36:15;;;;;;;14.77;7.80;;;28.90;99.90;;;;;;5069821;23;20157;-90
2023/06/28 11:38:17;;;;;;;13.68;7.95;;;29.00;99.90;;;;;;5069925;23;20185;-91
2023/06/28 11:40:20;;;;;;;18.40;7.65;;;29.60;99.90;;;;;;5070132;23;20197;-91
2023/06/28 11:42:20;;;;;;;15.75;8.45;;;29.50;99.90;;;;;;5094242;23;20169;-95
2023/06/28 11:44:21;;;;;;;18.83;8.68;;;29.30;99.90;;;;;;5094534;23;20160;-93
2023/06/28 11:46:22;;;;;;;15.18;7.68;;;29.10;99.90;;;;;;5070303;23;20177;-92
2023/06/28 11:48:26;;;;;;;14.45;7.72;;;29.40;99.90;;;;;;5069507;23;20695;-93
2023/06/28 11:50:27;;;;;;;18.33;8.45;;;29.50;99.90;;;;;;5070372;23;20161;-95
2023/06/28 11:52:29;;;;;;;16.05;8.60;;;29.00;99.90;;;;;;5045905;23;20162;-94
2023/06/28 11:54:32;;;;;;;14.90;9.13;;;29.00;99.90;;;;;;5070590;23;20160;-88
2023/06/28 11:56:44;;;;;;;19.80;9.52;;;28.70;99.90;;;;;;5070277;23;20521;-93
2023/06/28 11:58:45;;;;;;;19.15;9.00;;;29.00;99.90;;;;;;5045937;23;20238;-90
2023/06/28 12:00:46;;;;;;;21.55;9.65;;;29.00;99.90;;;;;;5070022;23;20573;-89
2023/06/28 12:02:50;;;;;;;17.75;9.60;;;29.00;99.90;;;;;;5070738;23;20154;-89
2023/06/28 12:04:58;;;;;;;20.50;9.10;;;29.00;99.90;;;;;;5046076;23;20218;-92
2023/06/28 12:07:04;;;;;;;22.52;9.45;;;28.60;99.90;;;;;;5068262;23;20149;-87
2023/06/28 12:09:19;;;;;;;19.08;9.55;;;28.60;99.90;;;;;;5070007;23;20185;-89
2023/06/28 12:11:20;;;;;;;18.38;10.32;;;28.10;99.90;;;;;;5069192;23;20185;-88
2023/06/28 12:13:22;;;;;;;18.27;9.10;;;28.20;99.90;;;;;;5070166;23;20693;-89
2023/06/28 12:15:25;;;;;;;19.30;9.68;;;28.40;99.90;;;;;;5069664;23;20623;-89
2023/06/28 12:17:35;;;;;;;16.65;9.45;;;28.60;99.90;;;;;;5070068;23;20185;-93
2023/06/28 12:19:36;;;;;;;15.82;9.40;;;28.70;99.90;;;;;;5070281;23;20149;-89
2023/06/28 12:21:38;;;;;;;19.75;9.45;;;28.20;99.90;;;;;;5100089;23;20168;-89
2023/06/28 12:23:38;;;;;;;22.30;9.82;;;28.30;99.90;;;;;;5082167;23;20248;-88
2023/06/28 12:25:43;;;;;;;19.73;9.80;;;28.20;99.90;;;;;;5070153;23;20491;-89
2023/06/28 12:27:59;;;;;;;18.67;10.25;;;28.40;99.90;;;;;;5069510;23;20177;-89
2023/06/28 12:30:08;;;;;;;19.10;9.85;;;28.70;99.90;;;;;;5094528;23;20184;-90
2023/06/28 12:32:14;;;;;;;18.02;9.07;;;28.80;99.90;;;;;;5070200;23;20239;-92
2023/06/28 12:34:28;;;;;;;19.55;9.55;;;28.80;99.90;;;;;;5094905;23;20157;-94
2023/06/28 12:36:31;;;;;;;22.95;10.98;;;28.80;99.90;;;;;;5118168;23;20144;-92
2023/06/28 12:38:32;;;;;;;19.10;10.43;;;28.50;99.90;;;;;;5093822;23;20294;-94
2023/06/28 12:40:33;;;;;;;21.30;10.60;;;28.90;99.90;;;;;;5094487;23;20153;-95
2023/06/28 12:42:34;;;;;;;19.35;10.70;;;29.40;99.90;;;;;;5094151;23;20612;-93
2023/06/28 12:44:56;;;;;;;18.77;10.75;;;29.30;99.90;;;;;;5094936;23;20156;-90
2023/06/28 12:46:56;;;;;;;19.17;10.48;;;29.50;99.90;;;;;;5069876;23;20154;-96
2023/06/28 12:49:03;;;;;;;18.33;10.63;;;29.50;99.90;;;;;;5070085;23;20663;-90
2023/06/28 12:51:04;;;;;;;21.40;10.50;;;29.20;99.90;;;;;;5094646;23;20546;-95
2023/06/28 12:53:05;;;;;;;18.08;10.27;;;29.30;99.90;;;;;;5094190;23;20157;-92
2023/06/28 12:55:06;;;;;;;24.42;10.80;;;29.30;99.90;;;;;;5070041;23;20197;-90
2023/06/28 12:57:07;;;;;;;18.52;11.13;;;29.50;99.90;;;;;;5069676;23;20208;-91
2023/06/28 12:59:07;;;;;;;18.77;11.10;;;29.40;99.90;;;;;;5071784;23;20232;-93
2023/06/28 13:01:08;;;;;;;20.73;10.20;;;29.40;99.90;;;;;;5071369;23;20608;-91
2023/06/28 13:03:10;;;;;;;16.30;9.15;;;29.50;99.90;;;;;;5070166;23;20240;-92
2023/06/28 13:05:11;;;;;;;16.38;9.20;;;29.80;99.90;;;;;;5069691;23;20212;-94
2023/06/28 13:07:12;;;;;;;20.67;10.10;;;30.00;99.90;;;;;;5093812;23;20583;-93
2023/06/28 13:09:13;;;;;;;18.65;8.88;;;30.20;99.90;;;;;;5069260;23;20189;-91
2023/06/28 13:11:14;;;;;;;15.93;9.68;;;30.20;99.90;;;;;;5093991;23;20608;-92
2023/06/28 13:13:14;;;;;;;17.60;9.75;;;30.20;99.90;;;;;;5070603;23;20153;-96
2023/06/28 13:15:15;;;;;;;14.57;9.05;;;30.30;99.90;;;;;;5070378;23;20233;-94
2023/06/28 13:17:16;;;;;;;19.80;9.10;;;30.40;99.90;;;;;;5094091;23;20160;-90
2023/06/28 13:19:16;;;;;;;13.95;9.73;;;30.30;99.90;;;;;;5069755;23;20157;-90
2023/06/28 13:21:18;;;;;;;16.90;9.55;;;30.50;99.90;;;;;;5070163;23;20394;-96
2023/06/28 13:23:18;;;;;;;15.38;9.80;;;30.30;99.90;;;;;;5093978;23;20148;-90
2023/06/28 13:25:20;;;;;;;17.33;9.43;;;30.10;99.90;;;;;;5069063;23;20165;-90
2023/06/28 13:27:21;;;;;;;15.43;9.55;;;29.70;99.90;;;;;;5069137;23;20157;-90
2023/06/28 13:29:23;;;;;;;16.13;10.02;;;29.60;99.90;;;;;;5093517;23;20513;-90
2023/06/28 13:31:24;;;;;;;20.02;9.77;;;29.60;99.90;;;;;;5069047;23;20549;-90
2023/06/28 13:33:25;;;;;;;17.83;10.52;;;29.80;99.90;;;;;;5069083;23;20145;-90
2023/06/28 13:35:26;;;;;;;17.63;10.65;;;29.70;99.90;;;;;;5094339;23;20248;-91
2023/06/28 13:37:27;;;;;;;18.00;9.82;;;29.60;99.90;;;;;;5069166;23;20189;-90
2023/06/28 13:39:27;;;;;;;17.60;10.27;;;29.40;99.90;;;;;;5069445;23;20212;-90
2023/06/28 13:41:28;;;;;;;17.50;10.52;;;29.50;99.90;;;;;;5069727;23;20169;-90
2023/06/28 13:43:29;;;;;;;17.08;10.73;;;29.50;99.90;;;;;;5079432;23;20188;-86
2023/06/28 13:45:29;;;;;;;20.67;11.27;;;29.40;99.90;;;;;;5122942;23;20148;-85
2023/06/28 13:47:30;;;;;;;17.23;10.63;;;29.40;99.90;;;;;;5097532;23;20180;-85
2023/06/28 13:49:32;;;;;;;21.25;10.18;;;29.60;99.90;;;;;;5099059;23;20185;-85
2023/06/28 13:51:33;;;;;;;21.55;10.52;;;29.50;99.90;;;;;;5104473;23;20159;-85
2023/06/28 13:53:33;;;;;;;15.02;10.02;;;29.70;99.90;;;;;;5124858;23;20152;-91
2023/06/28 13:55:34;;;;;;;17.55;10.38;;;30.00;99.90;;;;;;5071462;23;20180;-84
2023/06/28 13:57:35;;;;;;;15.13;9.98;;;30.10;99.90;;;;;;5095791;23;20173;-84
2023/06/28 13:59:35;;;;;;;20.23;11.07;;;30.10;99.90;;;;;;5096226;23;20153;-85
2023/06/28 14:01:38;;;;;;;18.00;10.88;;;30.20;99.90;;;;;;5073335;23;20458;-84
2023/06/28 14:03:38;;;;;;;17.40;10.50;;;30.00;99.90;;;;;;5121293;23;20279;-84
2023/06/28 14:05:39;;;;;;;16.52;10.57;;;30.00;99.90;;;;;;5092288;23;20153;-84
2023/06/28 14:07:40;;;;;;;17.15;10.85;;;30.00;99.90;;;;;;5092352;23;20232;-84
2023/06/28 14:09:41;;;;;;;18.10;10.55;;;29.80;99.90;;;;;;5092489;23;20201;-84
2023/06/28 14:11:42;;;;;;;19.95;12.15;;;30.00;99.90;;;;;;5092885;23;20788;-83
2023/06/28 14:13:42;;;;;;;18.77;12.02;;;30.10;99.90;;;;;;5067816;23;20204;-85
2023/06/28 14:15:43;;;;;;;19.75;11.70;;;30.20;99.90;;;;;;5116939;23;20154;-83
2023/06/28 14:17:44;;;;;;;17.05;11.07;;;30.30;99.90;;;;;;5092195;23;20169;-85
2023/06/28 14:19:45;;;;;;;19.27;11.43;;;30.10;99.90;;;;;;5067902;23;20164;-84
2023/06/28 14:21:46;;;;;;;18.63;11.23;;;29.90;99.90;;;;;;5092591;23;20215;-85
2023/06/28 14:23:46;;;;;;;20.38;12.07;;;29.70;99.90;;;;;;5092382;23;20554;-84
2023/06/28 14:25:47;;;;;;;17.73;11.57;;;29.60;99.90;;;;;;5093172;23;20453;-84
2023/06/28 14:27:48;;;;;;;18.77;11.45;;;29.50;99.90;;;;;;5091990;23;20190;-85
2023/06/28 14:29:48;;;;;;;21.10;11.60;;;29.40;99.90;;;;;;5067788;23;20264;-86
2023/06/28 14:31:49;;;;;;;20.27;11.93;;;29.00;99.90;;;;;;5068044;23;20149;-84
2023/06/28 14:33:50;;;;;;;19.80;11.95;;;28.70;99.90;;;;;;5067683;23;20157;-85
2023/06/28 14:35:50;;;;;;;22.33;10.98;;;28.50;99.90;;;;;;5094137;23;20220;-85
2023/06/28 14:37:51;;;;;;;17.55;11.10;;;28.50;99.90;;;;;;5092182;23;20173;-84
2023/06/28 14:39:52;;;;;;;21.70;11.32;;;28.30;99.90;;;;;;5118447;23;20176;-85
2023/06/28 14:41:52;;;;;;;18.77;10.98;;;27.90;99.90;;;;;;5091931;23;20187;-85
2023/06/28 14:43:54;;;;;;;18.05;11.63;;;28.00;99.90;;;;;;5067162;23;20493;-85
2023/06/28 14:45:54;;;;;;;24.38;11.85;;;27.80;99.90;;;;;;5092144;23;20153;-85
2023/06/28 14:47:55;;;;;;;19.30;10.45;;;28.10;99.90;;;;;;5094421;23;20171;-84
2023/06/28 14:49:56;;;;;;;23.80;11.75;;;28.30;99.90;;;;;;5094009;23;20192;-84
2023/06/28 14:51:57;;;;;;;24.45;12.02;;;28.30;99.90;;;;;;5070406;23;20208;-86
2023/06/28 14:53:58;;;;;;;22.55;12.73;;;28.40;99.90;;;;;;5091901;23;20156;-85
2023/06/28 14:55:58;;;;;;;18.27;11.73;;;28.50;99.90;;;;;;5069919;23;20154;-84
2023/06/28 14:57:59;;;;;;;21.77;11.68;;;28.50;99.90;;;;;;5117607;23;20175;-84
2023/06/28 15:00:00;;;;;;;20.10;11.90;;;28.50;99.90;;;;;;5092570;23;20655;-84
2023/06/28 15:02:01;;;;;;;20.23;12.20;;;28.10;99.90;;;;;;5119887;23;20603;-84
2023/06/28 15:04:01;;;;;;;22.80;12.15;;;28.00;99.90;;;;;;5094045;23;20149;-84
2023/06/28 15:06:02;;;;;;;22.00;12.50;;;27.60;99.90;;;;;;5069338;23;20146;-84
2023/06/28 15:08:03;;;;;;;18.88;11.90;;;27.40;99.90;;;;;;5069214;23;20540;-84
2023/06/28 15:10:05;;;;;;;24.85;11.88;;;27.20;99.90;;;;;;5092737;23;20195;-84
2023/06/28 15:12:07;;;;;;;29.02;13.05;;;27.20;99.90;;;;;;5118602;23;20551;-84
2023/06/28 15:14:08;;;;;;;42.70;23.75;;;27.20;99.90;;;;;;5093263;23;20153;-84
2023/06/28 15:16:09;;;;;;;26.95;12.35;;;27.40;99.90;;;;;;5093473;23;20453;-84
2023/06/28 15:18:09;;;;;;;24.70;13.10;;;27.20;99.90;;;;;;5093479;23;20247;-84
2023/06/28 15:20:11;;;;;;;22.13;11.60;;;27.20;99.90;;;;;;5118791;23;20222;-84
2023/06/28 15:22:11;;;;;;;24.58;12.40;;;26.90;99.90;;;;;;5093464;23;20168;-84
2023/06/28 15:24:12;;;;;;;23.52;11.93;;;26.90;99.90;;;;;;5119393;23;20149;-84
2023/06/28 15:26:13;;;;;;;22.17;12.13;;;27.10;99.90;;;;;;5068985;23;20153;-84
2023/06/28 15:28:14;;;;;;;20.00;12.15;;;26.90;99.90;;;;;;5117953;23;20168;-84
2023/06/28 15:30:16;;;;;;;23.73;12.27;;;27.10;99.90;;;;;;5069323;23;20272;-86
2023/06/28 15:32:17;;;;;;;23.08;12.05;;;27.00;99.90;;;;;;5093616;23;20663;-85
2023/06/28 15:34:18;;;;;;;25.08;13.00;;;27.20;99.90;;;;;;5068839;23;20161;-85
2023/06/28 15:36:19;;;;;;;21.05;12.57;;;27.10;99.90;;;;;;5096287;23;20141;-85
2023/06/28 15:38:20;;;;;;;27.38;13.10;;;27.10;99.90;;;;;;5120155;23;20494;-85
2023/06/28 15:40:20;;;;;;;24.98;12.15;;;27.30;99.90;;;;;;5100187;23;20203;-84
2023/06/28 15:42:21;;;;;;;25.80;12.57;;;27.20;99.90;;;;;;5074497;23;20481;-86
2023/06/28 15:44:22;;;;;;;26.27;13.35;;;27.30;99.90;;;;;;5120874;23;20192;-84
2023/06/28 15:46:30;;;;;;;21.33;12.68;;;27.30;99.90;;;;;;5120500;23;20167;-84
2023/06/28 15:48:31;;;;;;;25.48;11.80;;;27.10;99.90;;;;;;5073171;23;20201;-84
2023/06/28 15:50:32;;;;;;;22.30;12.55;;;27.10;99.90;;;;;;5096009;23;20157;-84
2023/06/28 15:52:33;;;;;;;21.92;12.48;;;26.80;99.90;;;;;;5096851;23;20152;-84
2023/06/28 15:54:33;;;;;;;23.30;12.27;;;26.80;99.90;;;;;;5073976;23;20232;-84
2023/06/28 15:56:34;;;;;;;21.63;12.00;;;26.80;99.90;;;;;;5095918;23;20241;-86
2023/06/28 15:58:35;;;;;;;22.13;13.15;;;26.50;99.90;;;;;;5098769;23;20560;-85
2023/06/28 16:00:36;;;;;;;27.83;13.38;;;26.60;99.90;;;;;;5072598;23;20489;-96
2023/06/28 16:02:37;;;;;;;27.02;13.15;;;26.50;99.90;;;;;;5097572;23;20141;-86
2023/06/28 16:04:38;;;;;;;26.27;13.07;;;26.40;99.90;;;;;;5096786;23;20675;-86
2023/06/28 16:06:39;;;;;;;20.33;13.07;;;26.30;99.90;;;;;;5095237;23;20247;-84
2023/06/28 16:08:40;;;;;;;25.25;12.20;;;26.30;99.90;;;;;;5069293;23;20221;-85
2023/06/28 16:10:40;;;;;;;21.23;12.48;;;26.40;99.90;;;;;;5119877;23;20144;-85
2023/06/28 16:12:41;;;;;;;27.35;13.85;;;26.30;99.90;;;;;;5094188;23;20215;-84
2023/06/28 16:14:42;;;;;;;21.75;13.20;;;26.40;99.90;;;;;;5095971;23;20157;-93
2023/06/28 16:16:43;;;;;;;25.80;12.77;;;26.30;99.90;;;;;;5095575;23;20216;-84
2023/06/28 16:18:44;;;;;;;20.02;12.23;;;26.30;99.90;;;;;;5096455;23;20188;-85
2023/06/28 16:20:45;;;;;;;21.27;12.75;;;26.30;99.90;;;;;;5071569;23;20149;-85
2023/06/28 16:22:45;;;;;;;24.77;13.45;;;26.30;99.90;;;;;;5096608;23;20160;-85
2023/06/28 16:24:46;;;;;;;26.60;13.48;;;26.30;99.90;;;;;;5070805;23;20150;-85
2023/06/28 16:26:47;;;;;;;24.88;13.63;;;26.40;99.90;;;;;;5095746;23;20156;-84
2023/06/28 16:28:47;;;;;;;23.15;13.27;;;26.30;99.90;;;;;;5070554;23;20174;-84
2023/06/28 16:30:48;;;;;;;26.17;13.32;;;25.90;99.90;;;;;;5070911;23;20179;-84
2023/06/28 16:32:49;;;;;;;24.10;13.27;;;25.70;99.90;;;;;;5096585;23;20149;-95
2023/06/28 16:34:50;;;;;;;24.67;13.25;;;25.80;99.90;;;;;;5068883;23;20208;-85
2023/06/28 16:36:50;;;;;;;25.15;13.00;;;25.80;99.90;;;;;;5093367;23;20249;-84
2023/06/28 16:38:51;;;;;;;22.70;13.02;;;25.80;99.90;;;;;;5070166;23;20740;-84
2023/06/28 16:40:52;;;;;;;21.08;13.00;;;25.70;99.90;;;;;;5069632;23;20478;-84
2023/06/28 16:42:52;;;;;;;26.05;12.68;;;25.60;99.90;;;;;;5072841;23;20150;-94
2023/06/28 16:44:53;;;;;;;25.58;13.13;;;25.70;99.90;;;;;;5095326;23;20161;-85
2023/06/28 16:46:54;;;;;;;20.80;12.82;;;25.80;99.90;;;;;;5093390;23;20161;-84
2023/06/28 16:48:54;;;;;;;25.60;13.52;;;25.90;99.90;;;;;;5071628;23;20197;-85
2023/06/28 16:50:55;;;;;;;26.23;13.68;;;25.80;99.90;;;;;;5068372;23;20158;-85
2023/06/28 16:52:56;;;;;;;24.13;13.52;;;25.80;99.90;;;;;;5068935;23;20549;-85
2023/06/28 16:54:56;;;;;;;23.30;13.25;;;25.80;99.90;;;;;;5073497;23;20229;-94
2023/06/28 16:56:57;;;;;;;21.73;13.25;;;25.80;99.90;;;;;;5095294;23;20232;-85
2023/06/28 16:58:58;;;;;;;23.08;13.10;;;25.70;99.90;;;;;;5100109;23;20195;-85
2023/06/28 17:00:59;;;;;;;25.45;13.93;;;25.80;99.90;;;;;;5071607;23;20236;-84
2023/06/28 17:02:59;;;;;;;28.52;13.05;;;25.50;99.90;;;;;;5122170;23;20144;-84
2023/06/28 17:05:00;;;;;;;24.27;13.48;;;25.60;99.90;;;;;;5068976;23;20157;-85
2023/06/28 17:07:02;;;;;;;28.88;13.68;;;25.40;99.90;;;;;;5071586;23;20651;-85
2023/06/28 17:09:02;;;;;;;25.38;13.43;;;25.20;99.90;;;;;;5069124;23;20742;-85
2023/06/28 17:11:03;;;;;;;22.70;13.55;;;25.10;99.90;;;;;;5099235;23;20149;-95
2023/06/28 17:13:07;;;;;;;29.70;15.25;;;25.10;99.90;;;;;;5077363;23;20146;-96
2023/06/28 17:15:11;;;;;;;26.85;13.68;;;25.20;99.90;;;;;;5077944;23;20161;-86
2023/06/28 17:17:12;;;;;;;28.63;14.20;;;25.20;99.90;;;;;;5129184;23;20124;-84
2023/06/28 17:19:13;;;;;;;25.75;13.60;;;25.20;99.90;;;;;;5101871;23;20205;-92
2023/06/28 17:21:14;;;;;;;23.50;13.10;;;25.20;99.90;;;;;;5129123;23;20220;-95
2023/06/28 17:23:17;;;;;;;27.17;14.63;;;25.30;99.90;;;;;;5100445;23;20149;-94
2023/06/28 17:25:17;;;;;;;25.73;13.00;;;25.30;99.90;;;;;;5071099;23;20153;-85
2023/06/28 17:27:20;;;;;;;26.33;13.65;;;25.30;99.90;;;;;;5071753;23;20172;-95
2023/06/28 17:29:20;;;;;;;25.02;14.30;;;25.10;99.90;;;;;;5094334;23;20714;-85
2023/06/28 17:31:21;;;;;;;25.48;14.35;;;25.00;99.90;;;;;;5070040;23;20154;-85
2023/06/28 17:33:23;;;;;;;26.80;14.75;;;25.10;99.90;;;;;;5117135;23;20147;-87
2023/06/28 17:35:24;;;;;;;29.02;13.60;;;25.30;99.90;;;;;;5066556;23;20158;-86
2023/06/28 17:37:26;;;;;;;26.00;14.32;;;25.30;99.90;;;;;;5092457;23;20259;-86
2023/06/28 17:39:26;;;;;;;29.77;14.45;;;25.30;99.90;;;;;;5069130;23;20145;-86
2023/06/28 17:41:27;;;;;;;23.02;13.65;;;25.30;99.90;;;;;;5092076;23;20145;-86
2023/06/28 17:43:28;;;;;;;21.83;13.35;;;25.30;99.90;;;;;;5068652;23;20165;-86
2023/06/28 17:45:28;;;;;;;25.13;13.38;;;25.30;99.90;;;;;;5068818;23;20153;-86
2023/06/28 17:47:29;;;;;;;25.42;13.30;;;25.30;99.90;;;;;;5118776;23;20176;-86
2023/06/28 17:49:30;;;;;;;24.33;13.75;;;25.30;99.90;;;;;;5119217;23;20184;-86
2023/06/28 17:51:30;;;;;;;28.23;13.55;;;25.30;99.90;;;;;;5093000;23;20145;-86
2023/06/28 17:53:31;;;;;;;25.73;13.50;;;25.20;99.90;;;;;;5120073;23;20591;-86
2023/06/28 17:55:32;;;;;;;30.40;13.95;;;25.20;99.90;;;;;;5093073;23;20174;-86
2023/06/28 17:57:32;;;;;;;21.85;12.55;;;25.20;99.90;;;;;;5092714;23;20224;-86
2023/06/28 17:59:33;;;;;;;22.08;13.23;;;25.20;99.90;;;;;;5119470;23;20151;-86
2023/06/28 18:01:34;;;;;;;27.48;13.50;;;25.20;99.90;;;;;;5070100;23;20153;-87
2023/06/28 18:03:34;;;;;;;24.80;13.27;;;25.20;99.90;;;;;;5093313;23;20183;-86
2023/06/28 18:05:36;;;;;;;22.50;13.38;;;25.20;99.90;;;;;;5093144;23;20498;-86